TAF AMD EFUT 010628Z 0106/0115 12005KT 9999 BKN003
From batch tds/tafs/production/2023/2/1/h06_m29_tafs.cache.xml
Issued (8 minutes ago)
Forecasts TAF AMD EFUT 010628Z 0106/0115 12005KT 9999 BKN003
TEMPO 0106/0110 -FZDZSN SCT003 BKN030
PROB40
TEMPO 0106/0110 4000
BECMG 0110/0112 SCT005 BKN030
TEMPO 0112/0113 BKN005
TAF AMD EFJO 010628Z 0106/0115 23005KT 9999 BKN025
From batch tds/tafs/production/2023/2/1/h06_m29_tafs.cache.xml
Issued (8 minutes ago)
Forecasts TAF AMD EFJO 010628Z 0106/0115 23005KT 9999 BKN025
TEMPO 0106/0115 BKN006
PROB40
TEMPO 0112/0115 5000 -FZDZ BKN004
KHTS 010627Z 0106/0206 34004KT 2SM -SN OVC035
From batch tds/tafs/production/2023/2/1/h06_m29_tafs.cache.xml
Issued (9 minutes ago)
Forecasts KHTS 010627Z 0106/0206 34004KT 2SM -SN OVC035
TEMPO 0106/0109 3SM -SN OVC015
FM010900 34004KT P6SM BKN045
FM012200 00000KT P6SM SCT200
KBKW 010627Z 0106/0206 33006KT 1SM -SN BKN005 BKN009 OVC025
From batch tds/tafs/production/2023/2/1/h06_m29_tafs.cache.xml
Issued (9 minutes ago)
Forecasts KBKW 010627Z 0106/0206 33006KT 1SM -SN BKN005 BKN009 OVC025
TEMPO 0106/0110 3SM -SN BKN011 OVC025
FM011000 33007KT 2SM BR OVC004
TEMPO 0112/0116 4SM -SN BKN012 OVC025
FM011600 34006KT P6SM BKN045
FM020500 15004KT P6SM BKN090
TAF AMD LSZH 010627Z 0106/0212 23004KT 9999 FEW025 SCT030 TX07/0114Z TN02/0106Z TN03/0205Z
From batch tds/tafs/production/2023/2/1/h06_m29_tafs.cache.xml
Issued (9 minutes ago)
Forecasts TAF AMD LSZH 010627Z 0106/0212 23004KT 9999 FEW025 SCT030 TX07/0114Z TN02/0106Z TN03/0205Z
PROB30
TEMPO 0106/0110 RASN
BECMG 0108/0110 24010KT
TEMPO 0111/0118 26015G25KT
PROB30
TEMPO 0122/0209 RASN
KVQQ 010626Z 0106/0206 00000KT 1SM BR BKN050
From batch tds/tafs/production/2023/2/1/h06_m29_tafs.cache.xml
Issued (10 minutes ago)
Forecasts KVQQ 010626Z 0106/0206 00000KT 1SM BR BKN050
FM010830 00000KT 2SM BR SCT002 BKN006
FM011000 00000KT 1/4SM FG OVC002
FM011430 27003KT 3SM BR SCT002 BKN009
FM011500 27006KT P6SM SCT015 BKN030
FM011600 27006KT P6SM SCT030 BKN060
FM012300 16006KT P6SM SCT040 BKN070 BKN250
TAF EGNV 010625Z 0106/0115 25018KT 9999 SCT030
From batch tds/tafs/production/2023/2/1/h06_m29_tafs.cache.xml
Issued (11 minutes ago)
Forecasts TAF EGNV 010625Z 0106/0115 25018KT 9999 SCT030
PROB40
TEMPO 0106/0115 27022G32KT
PROB40
TEMPO 0106/0109 6000 RA SHRA BKN014
KGEU 010624Z 0106/0206 27004KT P6SM FEW080
From batch tds/tafs/production/2023/2/1/h06_m29_tafs.cache.xml
Issued (12 minutes ago)
Forecasts KGEU 010624Z 0106/0206 27004KT P6SM FEW080
FM010800 36005KT P6SM FEW080
FM011500 VRB04KT P6SM SKC
FM012100 26005KT P6SM SKC AMD NOT SKED TIL 011300
KGYR 010624Z 0106/0206 24004KT P6SM FEW080
From batch tds/tafs/production/2023/2/1/h06_m29_tafs.cache.xml
Issued (12 minutes ago)
Forecasts KGYR 010624Z 0106/0206 24004KT P6SM FEW080
FM011000 VRB03KT P6SM FEW080
FM012200 25006KT P6SM SKC AMD NOT SKED TIL 011300
PAOM 010623Z 0106/0206 VRB04KT 5SM BR OVC030
From batch tds/tafs/production/2023/2/1/h06_m29_tafs.cache.xml
Issued (13 minutes ago)
Forecasts PAOM 010623Z 0106/0206 VRB04KT 5SM BR OVC030
TEMPO 0106/0108 3/4SM BR BKN001 OVC120
TAF AMD ROTM 0106/0203 18010KT 9999 FEW040 FEW100 510305 QNH3004INS
From batch tds/tafs/production/2023/2/1/h06_m29_tafs.cache.xml
Issued (14 minutes ago)
Forecasts TAF AMD ROTM 0106/0203 18010KT 9999 FEW040 FEW100 510305 QNH3004INS
TEMPO 0106/0110 15013G20KT
BECMG 0110/0112 21010KT 9999 SCT030 BKN060 510305 QNH3002INS
FM011800 24008KT 9999 BKN030 BKN050 510209 QNH3002INS
TEMPO 0119/0124 27010KT 4800 SHRA BKN015
BECMG 0200/0202 36013KT 9999 SCT020 BKN030 BKN060 510209 QNH3009INS T22/0106Z T17/0118Z AMD 0600
KCRW 010622Z 0106/0206 33005KT 2SM -SN BKN005 OVC015
From batch tds/tafs/production/2023/2/1/h06_m29_tafs.cache.xml
Issued (14 minutes ago)
Forecasts KCRW 010622Z 0106/0206 33005KT 2SM -SN BKN005 OVC015
TEMPO 0106/0110 OVC025
FM011000 34004KT 5SM -SN OVC025
FM011200 33004KT P6SM BKN040
FM012200 00000KT P6SM SCT200
KCKB 010622Z 0106/0206 32004KT 4SM -SN OVC007
From batch tds/tafs/production/2023/2/1/h06_m29_tafs.cache.xml
Issued (14 minutes ago)
Forecasts KCKB 010622Z 0106/0206 32004KT 4SM -SN OVC007
TEMPO 0106/0110 6SM -SN OVC012
FM011000 31005KT P6SM BKN017
FM011300 33004KT P6SM SCT080
FM012200 00000KT P6SM SCT250
KEKN 010622Z 0106/0206 30005KT 1 1/2SM -SN OVC012
From batch tds/tafs/production/2023/2/1/h06_m29_tafs.cache.xml
Issued (14 minutes ago)
Forecasts KEKN 010622Z 0106/0206 30005KT 1 1/2SM -SN OVC012
TEMPO 0106/0110 3SM -SN OVC007
FM011000 32005KT 6SM -SN OVC008
TEMPO 0111/0114 3SM -SN BR OVC012
FM011400 31005KT 6SM -SN BKN013
FM011600 30005KT P6SM BKN090
FM020000 00000KT P6SM FEW240
TAF EGYD 010621Z 0106/0115 26022G32KT 9999 FEW025
From batch tds/tafs/production/2023/2/1/h06_m29_tafs.cache.xml
Issued (15 minutes ago)
Forecasts TAF EGYD 010621Z 0106/0115 26022G32KT 9999 FEW025
TEMPO 0109/0115 SCT018
TAF AMD EGPF 010621Z 0106/0206 27017KT 9999 SCT035
From batch tds/tafs/production/2023/2/1/h06_m29_tafs.cache.xml
Issued (15 minutes ago)
Forecasts TAF AMD EGPF 010621Z 0106/0206 27017KT 9999 SCT035
TEMPO 0106/0108 28022G38KT 4000 RA SHRA
BECMG 0113/0116 VRB03KT
TEMPO 0114/0204 8000 -RA BKN012
PROB30
TEMPO 0116/0121 RA BKN007
BECMG 0117/0120 24012KT
PROB40
TEMPO 0120/0206 25015G25KT
PROB30
TEMPO 0202/0204 4000 RA
TAF AMD EPLK 010620Z 0106/0118 27015KT 9999 SCT020 BKN030
From batch tds/tafs/production/2023/2/1/h06_m29_tafs.cache.xml
Issued (16 minutes ago)
Forecasts TAF AMD EPLK 010620Z 0106/0118 27015KT 9999 SCT020 BKN030
TEMPO 0108/0118 27020G30KT -SHRA SCT013 BKN020CB
TEMPO 0111/0115 5000 SHRA RA SCT007 BKN012CB
PAJN 010619Z 0106/0206 VRB03KT 2SM -SN BR SCT002 SCT015 OVC040
From batch tds/tafs/production/2023/2/1/h06_m29_tafs.cache.xml
Issued (17 minutes ago)
Forecasts PAJN 010619Z 0106/0206 VRB03KT 2SM -SN BR SCT002 SCT015 OVC040
TEMPO 0106/0110 1SM BR SCT002 BKN015 OVC040
FM011500 10008KT 5SM -SHSNRA SCT015 OVC040
TAF AMD LZTT 010618Z 0106/0206 25013KT 9999 -SHSN SCT010 BKN035
From batch tds/tafs/production/2023/2/1/h06_m29_tafs.cache.xml
Issued (18 minutes ago)
Forecasts TAF AMD LZTT 010618Z 0106/0206 25013KT 9999 -SHSN SCT010 BKN035
TEMPO 0106/0204 2500 SHSN DRSN BKN003 BKN014
TEMPO 0106/0120 26020G40KT
PROB30
TEMPO 0106/0206 1000 +SHSN DRSN
TAF AMD LZKZ 010618Z 0106/0206 21006KT 9999 BKN040
From batch tds/tafs/production/2023/2/1/h06_m29_tafs.cache.xml
Issued (18 minutes ago)
Forecasts TAF AMD LZKZ 010618Z 0106/0206 21006KT 9999 BKN040
TEMPO 0106/0118 21015KT
TEMPO 0106/0206 1800 SN BKN004 BKN009
BECMG 0200/0202 01004KT
TAF AMD CYZH 010616Z 0106/0113 26008KT 3SM -SN OVC025
From batch tds/tafs/production/2023/2/1/h06_m29_tafs.cache.xml
Issued (20 minutes ago)
Forecasts TAF AMD CYZH 010616Z 0106/0113 26008KT 3SM -SN OVC025
TEMPO 0106/0112 1SM -SN OVC015
BECMG 0108/0110 31008KT
FM011200 31010KT P6SM FEW025 SCT040 BKN080
TEMPO 0112/0113 4SM -SN BKN020 OVC040 RMK FCST BASED ON AUTO OBS. NXT FCST BY 010700Z
TAF AMD ETNH 010615Z 0106/0115 26015G25KT 9999 NSW SCT020 BKN030
From batch tds/tafs/production/2023/2/1/h06_m29_tafs.cache.xml
Issued (21 minutes ago)
Forecasts TAF AMD ETNH 010615Z 0106/0115 26015G25KT 9999 NSW SCT020 BKN030
TEMPO 0106/0115 27020G35KT 4000 SHRA BKN015CB
PROB30 0106/0115 29025G40KT 2000 TSRA BKN007CB BY ETGL
TAF LOXA 010615Z 0106/0115 23010KT 9999 SCT015 BKN050
From batch tds/tafs/production/2023/2/1/h06_m29_tafs.cache.xml
Issued (21 minutes ago)
Forecasts TAF LOXA 010615Z 0106/0115 23010KT 9999 SCT015 BKN050
TEMPO 0106/0115 24012G25KT 8000 -SHRA SCT013 BKN030
PROB30
TEMPO 0106/0115 24015G35KT 3000 SHSNRA SCT010 OVC015
TAF AMD YBWW 010615Z 0106/0206 17010KT 9999 SCT050
From batch tds/tafs/production/2023/2/1/h06_m29_tafs.cache.xml
Issued (21 minutes ago)
Forecasts TAF AMD YBWW 010615Z 0106/0206 17010KT 9999 SCT050
BECMG 0109/0110 09012KT 9999 SCT012
FM011000 09010KT 9999 BKN010
FM012200 08012KT 9999 BKN030
FM020200 12010KT 9999 SCT035
TEMPO 0110/0112 9999 BKN008
TEMPO 0112/0122 9999 BKN005
TAF LOXZ 010615Z 0106/0115 26013KT 9999 FEW060 SCT220
From batch tds/tafs/production/2023/2/1/h06_m29_tafs.cache.xml
Issued (21 minutes ago)
Forecasts TAF LOXZ 010615Z 0106/0115 26013KT 9999 FEW060 SCT220
TEMPO 0107/0115 32015G30KT -SHSN FEW035 BKN050
talk